sensor_id;sensor_type;location;lat;lon;timestamp;P1;durP1;ratioP1;P2;durP2;ratioP2
75169;SDS011;63749;49.186;9.222;2023-03-01T00:01:05;24.53;;;10.27;;
75169;SDS011;63749;49.186;9.222;2023-03-01T00:03:32;23.17;;;10.68;;
75169;SDS011;63749;49.186;9.222;2023-03-01T00:06:00;22.23;;;10.15;;
75169;SDS011;63749;49.186;9.222;2023-03-01T00:08:26;23.35;;;10.52;;
75169;SDS011;63749;49.186;9.222;2023-03-01T00:11:02;23.00;;;9.87;;
75169;SDS011;63749;49.186;9.222;2023-03-01T00:13:39;21.50;;;10.00;;
75169;SDS011;63749;49.186;9.222;2023-03-01T00:16:06;21.35;;;10.00;;
75169;SDS011;63749;49.186;9.222;2023-03-01T00:18:35;22.58;;;10.30;;
75169;SDS011;63749;49.186;9.222;2023-03-01T00:21:00;22.47;;;9.67;;
75169;SDS011;63749;49.186;9.222;2023-03-01T00:23:26;20.33;;;9.20;;
75169;SDS011;63749;49.186;9.222;2023-03-01T00:25:52;22.42;;;10.20;;
75169;SDS011;63749;49.186;9.222;2023-03-01T00:28:18;21.67;;;10.07;;
75169;SDS011;63749;49.186;9.222;2023-03-01T00:30:44;25.55;;;10.50;;
75169;SDS011;63749;49.186;9.222;2023-03-01T00:33:09;24.67;;;10.47;;
75169;SDS011;63749;49.186;9.222;2023-03-01T00:35:36;24.43;;;10.37;;
75169;SDS011;63749;49.186;9.222;2023-03-01T00:38:02;22.23;;;10.23;;
75169;SDS011;63749;49.186;9.222;2023-03-01T00:40:29;24.90;;;10.30;;
75169;SDS011;63749;49.186;9.222;2023-03-01T00:42:56;21.35;;;10.38;;
75169;SDS011;63749;49.186;9.222;2023-03-01T00:45:22;22.50;;;9.57;;
75169;SDS011;63749;49.186;9.222;2023-03-01T00:47:48;23.23;;;10.07;;
75169;SDS011;63749;49.186;9.222;2023-03-01T00:50:15;22.77;;;10.13;;
75169;SDS011;63749;49.186;9.222;2023-03-01T00:52:40;24.33;;;10.17;;
75169;SDS011;63749;49.186;9.222;2023-03-01T00:55:06;24.97;;;10.60;;
75169;SDS011;63749;49.186;9.222;2023-03-01T00:57:32;24.45;;;10.40;;
75169;SDS011;63749;49.186;9.222;2023-03-01T00:59:58;24.60;;;10.40;;
75169;SDS011;63749;49.186;9.222;2023-03-01T01:02:23;22.67;;;9.90;;
75169;SDS011;63749;49.186;9.222;2023-03-01T01:04:50;25.03;;;10.47;;
75169;SDS011;63749;49.186;9.222;2023-03-01T01:07:16;25.17;;;10.80;;
75169;SDS011;63749;49.186;9.222;2023-03-01T01:09:42;24.88;;;10.90;;
75169;SDS011;63749;49.186;9.222;2023-03-01T01:12:08;21.05;;;9.15;;
75169;SDS011;63749;49.186;9.222;2023-03-01T01:14:34;22.30;;;10.57;;
75169;SDS011;63749;49.186;9.222;2023-03-01T01:16:59;24.30;;;10.02;;
75169;SDS011;63749;49.186;9.222;2023-03-01T01:19:24;23.73;;;10.73;;
75169;SDS011;63749;49.186;9.222;2023-03-01T01:21:51;21.03;;;9.60;;
75169;SDS011;63749;49.186;9.222;2023-03-01T01:24:17;20.88;;;9.52;;
75169;SDS011;63749;49.186;9.222;2023-03-01T01:26:43;23.35;;;10.63;;
75169;SDS011;63749;49.186;9.222;2023-03-01T01:29:09;25.08;;;10.77;;
75169;SDS011;63749;49.186;9.222;2023-03-01T01:31:35;28.53;;;10.80;;
75169;SDS011;63749;49.186;9.222;2023-03-01T01:34:03;23.33;;;10.60;;
75169;SDS011;63749;49.186;9.222;2023-03-01T01:36:31;25.63;;;10.25;;
75169;SDS011;63749;49.186;9.222;2023-03-01T01:38:57;24.60;;;10.68;;
75169;SDS011;63749;49.186;9.222;2023-03-01T01:41:23;26.07;;;11.27;;
75169;SDS011;63749;49.186;9.222;2023-03-01T01:44:09;24.90;;;11.23;;
75169;SDS011;63749;49.186;9.222;2023-03-01T01:49:39;26.67;;;11.45;;
75169;SDS011;63749;49.186;9.222;2023-03-01T01:52:10;25.07;;;11.27;;
75169;SDS011;63749;49.186;9.222;2023-03-01T01:57:20;27.67;;;11.10;;
75169;SDS011;63749;49.186;9.222;2023-03-01T01:59:50;24.40;;;11.18;;
75169;SDS011;63749;49.186;9.222;2023-03-01T02:02:20;25.45;;;11.52;;
75169;SDS011;63749;49.186;9.222;2023-03-01T02:04:46;26.47;;;11.47;;
75169;SDS011;63749;49.186;9.222;2023-03-01T02:07:20;26.55;;;10.95;;
75169;SDS011;63749;49.186;9.222;2023-03-01T02:09:47;26.27;;;11.05;;
75169;SDS011;63749;49.186;9.222;2023-03-01T02:12:15;24.45;;;10.63;;
75169;SDS011;63749;49.186;9.222;2023-03-01T02:14:42;25.07;;;11.13;;
75169;SDS011;63749;49.186;9.222;2023-03-01T02:17:08;25.30;;;11.02;;
75169;SDS011;63749;49.186;9.222;2023-03-01T02:30:28;27.33;;;11.40;;
75169;SDS011;63749;49.186;9.222;2023-03-01T02:32:55;27.02;;;11.23;;
75169;SDS011;63749;49.186;9.222;2023-03-01T02:35:27;27.63;;;11.63;;
75169;SDS011;63749;49.186;9.222;2023-03-01T02:37:56;28.77;;;11.50;;
75169;SDS011;63749;49.186;9.222;2023-03-01T02:40:25;26.23;;;11.38;;
75169;SDS011;63749;49.186;9.222;2023-03-01T02:42:54;27.80;;;11.30;;
75169;SDS011;63749;49.186;9.222;2023-03-01T02:45:21;27.60;;;10.90;;
75169;SDS011;63749;49.186;9.222;2023-03-01T02:47:48;23.42;;;9.68;;
75169;SDS011;63749;49.186;9.222;2023-03-01T02:53:13;25.52;;;10.77;;
75169;SDS011;63749;49.186;9.222;2023-03-01T02:55:46;26.13;;;11.10;;
75169;SDS011;63749;49.186;9.222;2023-03-01T02:58:11;25.87;;;10.80;;
75169;SDS011;63749;49.186;9.222;2023-03-01T03:00:38;25.70;;;11.20;;
75169;SDS011;63749;49.186;9.222;2023-03-01T03:03:20;26.50;;;11.40;;
75169;SDS011;63749;49.186;9.222;2023-03-01T03:05:47;26.77;;;11.35;;
75169;SDS011;63749;49.186;9.222;2023-03-01T03:08:13;28.15;;;12.05;;
75169;SDS011;63749;49.186;9.222;2023-03-01T03:10:41;26.10;;;11.20;;
75169;SDS011;63749;49.186;9.222;2023-03-01T03:13:12;26.83;;;11.20;;
75169;SDS011;63749;49.186;9.222;2023-03-01T03:15:39;27.73;;;11.63;;
75169;SDS011;63749;49.186;9.222;2023-03-01T03:18:08;25.65;;;11.10;;
75169;SDS011;63749;49.186;9.222;2023-03-01T03:20:35;28.63;;;11.55;;
75169;SDS011;63749;49.186;9.222;2023-03-01T03:23:02;26.47;;;11.47;;
75169;SDS011;63749;49.186;9.222;2023-03-01T03:25:28;27.75;;;11.45;;
75169;SDS011;63749;49.186;9.222;2023-03-01T03:27:54;27.17;;;11.73;;
75169;SDS011;63749;49.186;9.222;2023-03-01T03:30:25;27.60;;;11.70;;
75169;SDS011;63749;49.186;9.222;2023-03-01T03:32:52;28.90;;;12.32;;
75169;SDS011;63749;49.186;9.222;2023-03-01T03:35:19;27.40;;;11.35;;
75169;SDS011;63749;49.186;9.222;2023-03-01T03:37:46;27.30;;;11.37;;
75169;SDS011;63749;49.186;9.222;2023-03-01T03:40:32;30.48;;;12.10;;
75169;SDS011;63749;49.186;9.222;2023-03-01T03:42:59;29.65;;;11.73;;
75169;SDS011;63749;49.186;9.222;2023-03-01T03:45:25;31.77;;;12.30;;
75169;SDS011;63749;49.186;9.222;2023-03-01T03:47:50;26.92;;;11.43;;
75169;SDS011;63749;49.186;9.222;2023-03-01T03:50:16;27.70;;;10.93;;
75169;SDS011;63749;49.186;9.222;2023-03-01T03:52:42;29.33;;;11.77;;
75169;SDS011;63749;49.186;9.222;2023-03-01T03:55:09;29.70;;;12.10;;
75169;SDS011;63749;49.186;9.222;2023-03-01T03:57:45;29.95;;;11.40;;
75169;SDS011;63749;49.186;9.222;2023-03-01T04:00:16;28.08;;;11.32;;
75169;SDS011;63749;49.186;9.222;2023-03-01T04:02:43;27.30;;;11.50;;
75169;SDS011;63749;49.186;9.222;2023-03-01T04:05:11;29.48;;;11.85;;
75169;SDS011;63749;49.186;9.222;2023-03-01T04:07:39;29.03;;;11.83;;
75169;SDS011;63749;49.186;9.222;2023-03-01T04:10:06;26.25;;;11.48;;
75169;SDS011;63749;49.186;9.222;2023-03-01T04:12:33;26.23;;;11.25;;
75169;SDS011;63749;49.186;9.222;2023-03-01T04:15:00;30.45;;;12.73;;
75169;SDS011;63749;49.186;9.222;2023-03-01T04:17:26;28.58;;;12.45;;
75169;SDS011;63749;49.186;9.222;2023-03-01T04:19:51;29.63;;;12.30;;
75169;SDS011;63749;49.186;9.222;2023-03-01T04:22:16;30.37;;;13.03;;
75169;SDS011;63749;49.186;9.222;2023-03-01T04:24:43;34.78;;;13.43;;
75169;SDS011;63749;49.186;9.222;2023-03-01T04:27:09;32.35;;;13.48;;
75169;SDS011;63749;49.186;9.222;2023-03-01T04:29:35;30.37;;;13.27;;
75169;SDS011;63749;49.186;9.222;2023-03-01T04:32:00;28.98;;;12.38;;
75169;SDS011;63749;49.186;9.222;2023-03-01T04:34:26;33.23;;;12.13;;
75169;SDS011;63749;49.186;9.222;2023-03-01T04:36:51;32.47;;;12.63;;
75169;SDS011;63749;49.186;9.222;2023-03-01T04:39:17;31.67;;;13.13;;
75169;SDS011;63749;49.186;9.222;2023-03-01T04:41:43;30.67;;;11.93;;
75169;SDS011;63749;49.186;9.222;2023-03-01T04:44:08;32.57;;;12.60;;
75169;SDS011;63749;49.186;9.222;2023-03-01T04:46:34;31.77;;;12.63;;
75169;SDS011;63749;49.186;9.222;2023-03-01T04:49:00;31.13;;;13.27;;
75169;SDS011;63749;49.186;9.222;2023-03-01T04:51:25;29.07;;;12.00;;
75169;SDS011;63749;49.186;9.222;2023-03-01T04:53:50;31.77;;;12.95;;
75169;SDS011;63749;49.186;9.222;2023-03-01T04:56:16;33.87;;;13.40;;
75169;SDS011;63749;49.186;9.222;2023-03-01T04:58:43;33.58;;;13.52;;
75169;SDS011;63749;49.186;9.222;2023-03-01T05:01:09;29.07;;;12.23;;
75169;SDS011;63749;49.186;9.222;2023-03-01T05:03:43;34.20;;;13.43;;
75169;SDS011;63749;49.186;9.222;2023-03-01T05:06:09;34.15;;;12.77;;
75169;SDS011;63749;49.186;9.222;2023-03-01T05:08:35;28.17;;;12.00;;
75169;SDS011;63749;49.186;9.222;2023-03-01T05:11:02;32.95;;;12.35;;
75169;SDS011;63749;49.186;9.222;2023-03-01T05:13:27;30.80;;;12.90;;
75169;SDS011;63749;49.186;9.222;2023-03-01T05:15:55;35.33;;;14.05;;
75169;SDS011;63749;49.186;9.222;2023-03-01T05:18:22;31.45;;;13.25;;
75169;SDS011;63749;49.186;9.222;2023-03-01T05:20:51;33.83;;;12.68;;
75169;SDS011;63749;49.186;9.222;2023-03-01T05:23:21;31.75;;;13.15;;
75169;SDS011;63749;49.186;9.222;2023-03-01T05:25:47;28.83;;;11.80;;
75169;SDS011;63749;49.186;9.222;2023-03-01T05:28:14;28.67;;;12.43;;
75169;SDS011;63749;49.186;9.222;2023-03-01T05:30:40;31.50;;;13.20;;
75169;SDS011;63749;49.186;9.222;2023-03-01T05:33:06;29.48;;;12.70;;
75169;SDS011;63749;49.186;9.222;2023-03-01T05:35:38;32.22;;;12.88;;
75169;SDS011;63749;49.186;9.222;2023-03-01T05:38:10;34.73;;;13.63;;
75169;SDS011;63749;49.186;9.222;2023-03-01T05:40:40;31.77;;;12.35;;
75169;SDS011;63749;49.186;9.222;2023-03-01T05:43:06;29.77;;;12.48;;
75169;SDS011;63749;49.186;9.222;2023-03-01T05:45:35;32.40;;;13.13;;
75169;SDS011;63749;49.186;9.222;2023-03-01T05:48:01;29.73;;;12.07;;
75169;SDS011;63749;49.186;9.222;2023-03-01T05:50:27;33.00;;;12.90;;
75169;SDS011;63749;49.186;9.222;2023-03-01T05:53:01;31.02;;;12.75;;
75169;SDS011;63749;49.186;9.222;2023-03-01T05:55:31;31.50;;;11.97;;
75169;SDS011;63749;49.186;9.222;2023-03-01T05:58:01;30.60;;;12.40;;
75169;SDS011;63749;49.186;9.222;2023-03-01T06:00:28;32.13;;;12.57;;
75169;SDS011;63749;49.186;9.222;2023-03-01T06:02:55;30.85;;;13.05;;
75169;SDS011;63749;49.186;9.222;2023-03-01T06:05:21;30.23;;;11.70;;
75169;SDS011;63749;49.186;9.222;2023-03-01T06:07:47;27.87;;;11.57;;
75169;SDS011;63749;49.186;9.222;2023-03-01T06:10:13;31.00;;;12.77;;
75169;SDS011;63749;49.186;9.222;2023-03-01T06:12:40;29.47;;;12.50;;
75169;SDS011;63749;49.186;9.222;2023-03-01T06:15:06;32.03;;;13.15;;
75169;SDS011;63749;49.186;9.222;2023-03-01T06:17:34;31.20;;;12.73;;
75169;SDS011;63749;49.186;9.222;2023-03-01T06:20:05;31.95;;;12.68;;
75169;SDS011;63749;49.186;9.222;2023-03-01T06:22:39;31.38;;;12.98;;
75169;SDS011;63749;49.186;9.222;2023-03-01T06:25:06;30.17;;;12.47;;
75169;SDS011;63749;49.186;9.222;2023-03-01T06:27:32;31.10;;;12.70;;
75169;SDS011;63749;49.186;9.222;2023-03-01T06:29:57;29.27;;;12.60;;
75169;SDS011;63749;49.186;9.222;2023-03-01T06:32:23;31.47;;;12.57;;
75169;SDS011;63749;49.186;9.222;2023-03-01T06:34:49;29.23;;;12.10;;
75169;SDS011;63749;49.186;9.222;2023-03-01T06:37:15;30.95;;;12.32;;
75169;SDS011;63749;49.186;9.222;2023-03-01T06:39:40;32.20;;;13.00;;
75169;SDS011;63749;49.186;9.222;2023-03-01T06:42:07;30.93;;;12.63;;
75169;SDS011;63749;49.186;9.222;2023-03-01T06:44:33;32.47;;;13.05;;
75169;SDS011;63749;49.186;9.222;2023-03-01T06:46:58;31.10;;;13.07;;
75169;SDS011;63749;49.186;9.222;2023-03-01T06:49:24;31.17;;;12.60;;
75169;SDS011;63749;49.186;9.222;2023-03-01T06:51:49;26.27;;;10.30;;
75169;SDS011;63749;49.186;9.222;2023-03-01T06:54:15;29.40;;;12.13;;
75169;SDS011;63749;49.186;9.222;2023-03-01T06:56:40;33.43;;;12.80;;
75169;SDS011;63749;49.186;9.222;2023-03-01T06:59:05;30.83;;;12.87;;
75169;SDS011;63749;49.186;9.222;2023-03-01T07:01:31;34.90;;;13.73;;
75169;SDS011;63749;49.186;9.222;2023-03-01T07:03:56;32.63;;;13.95;;
75169;SDS011;63749;49.186;9.222;2023-03-01T07:06:22;29.13;;;13.13;;
75169;SDS011;63749;49.186;9.222;2023-03-01T07:08:48;29.95;;;12.90;;
75169;SDS011;63749;49.186;9.222;2023-03-01T07:11:13;27.40;;;12.53;;
75169;SDS011;63749;49.186;9.222;2023-03-01T07:13:39;28.45;;;12.40;;
75169;SDS011;63749;49.186;9.222;2023-03-01T07:16:05;25.03;;;10.93;;
75169;SDS011;63749;49.186;9.222;2023-03-01T07:18:30;29.97;;;12.77;;
75169;SDS011;63749;49.186;9.222;2023-03-01T07:20:55;26.03;;;11.77;;
75169;SDS011;63749;49.186;9.222;2023-03-01T07:23:21;26.27;;;12.10;;
75169;SDS011;63749;49.186;9.222;2023-03-01T07:25:53;31.00;;;13.07;;
75169;SDS011;63749;49.186;9.222;2023-03-01T07:28:19;33.22;;;12.95;;
75169;SDS011;63749;49.186;9.222;2023-03-01T07:30:45;29.23;;;11.97;;
75169;SDS011;63749;49.186;9.222;2023-03-01T07:33:10;29.40;;;12.57;;
75169;SDS011;63749;49.186;9.222;2023-03-01T07:35:36;28.30;;;12.63;;
75169;SDS011;63749;49.186;9.222;2023-03-01T07:38:01;27.37;;;12.30;;
75169;SDS011;63749;49.186;9.222;2023-03-01T07:40:26;25.93;;;12.13;;
75169;SDS011;63749;49.186;9.222;2023-03-01T07:42:56;29.27;;;13.03;;
75169;SDS011;63749;49.186;9.222;2023-03-01T07:45:22;28.42;;;12.60;;
75169;SDS011;63749;49.186;9.222;2023-03-01T07:47:49;22.87;;;10.70;;
75169;SDS011;63749;49.186;9.222;2023-03-01T07:50:15;27.60;;;12.47;;
75169;SDS011;63749;49.186;9.222;2023-03-01T07:52:41;31.98;;;14.18;;
75169;SDS011;63749;49.186;9.222;2023-03-01T07:55:06;27.63;;;12.43;;
75169;SDS011;63749;49.186;9.222;2023-03-01T07:57:32;30.90;;;12.63;;
75169;SDS011;63749;49.186;9.222;2023-03-01T07:59:57;25.70;;;12.33;;
75169;SDS011;63749;49.186;9.222;2023-03-01T08:02:23;27.00;;;12.87;;
75169;SDS011;63749;49.186;9.222;2023-03-01T08:04:48;25.13;;;12.63;;
75169;SDS011;63749;49.186;9.222;2023-03-01T08:07:13;25.73;;;12.10;;
75169;SDS011;63749;49.186;9.222;2023-03-01T08:09:39;27.10;;;11.20;;
75169;SDS011;63749;49.186;9.222;2023-03-01T08:12:05;29.52;;;11.82;;
75169;SDS011;63749;49.186;9.222;2023-03-01T08:14:31;31.37;;;13.00;;
75169;SDS011;63749;49.186;9.222;2023-03-01T08:16:57;27.63;;;12.30;;
75169;SDS011;63749;49.186;9.222;2023-03-01T08:19:23;28.13;;;13.15;;
75169;SDS011;63749;49.186;9.222;2023-03-01T08:21:48;27.40;;;12.93;;
75169;SDS011;63749;49.186;9.222;2023-03-01T08:24:14;31.37;;;13.20;;
75169;SDS011;63749;49.186;9.222;2023-03-01T08:26:39;28.03;;;12.40;;
75169;SDS011;63749;49.186;9.222;2023-03-01T08:29:05;27.87;;;12.13;;
75169;SDS011;63749;49.186;9.222;2023-03-01T08:31:37;28.30;;;12.90;;
75169;SDS011;63749;49.186;9.222;2023-03-01T08:34:08;30.05;;;12.93;;
75169;SDS011;63749;49.186;9.222;2023-03-01T08:36:37;25.60;;;11.57;;
75169;SDS011;63749;49.186;9.222;2023-03-01T08:39:05;28.83;;;12.93;;
75169;SDS011;63749;49.186;9.222;2023-03-01T08:41:31;21.80;;;10.10;;
75169;SDS011;63749;49.186;9.222;2023-03-01T08:43:57;29.45;;;13.65;;
75169;SDS011;63749;49.186;9.222;2023-03-01T08:46:28;25.67;;;11.10;;
75169;SDS011;63749;49.186;9.222;2023-03-01T08:48:55;28.73;;;12.87;;
75169;SDS011;63749;49.186;9.222;2023-03-01T08:51:21;27.77;;;13.07;;
75169;SDS011;63749;49.186;9.222;2023-03-01T08:53:47;29.20;;;13.40;;
75169;SDS011;63749;49.186;9.222;2023-03-01T08:56:13;26.20;;;13.23;;
75169;SDS011;63749;49.186;9.222;2023-03-01T08:58:39;28.52;;;13.23;;
75169;SDS011;63749;49.186;9.222;2023-03-01T09:01:08;27.73;;;13.32;;
75169;SDS011;63749;49.186;9.222;2023-03-01T09:03:34;26.77;;;13.23;;
75169;SDS011;63749;49.186;9.222;2023-03-01T09:06:00;29.47;;;13.50;;
75169;SDS011;63749;49.186;9.222;2023-03-01T09:08:26;28.63;;;13.50;;
75169;SDS011;63749;49.186;9.222;2023-03-01T09:10:52;27.60;;;13.23;;
75169;SDS011;63749;49.186;9.222;2023-03-01T09:13:18;31.13;;;14.20;;
75169;SDS011;63749;49.186;9.222;2023-03-01T09:15:43;27.83;;;13.30;;
75169;SDS011;63749;49.186;9.222;2023-03-01T09:18:08;28.93;;;13.13;;
75169;SDS011;63749;49.186;9.222;2023-03-01T09:20:34;27.50;;;13.30;;
75169;SDS011;63749;49.186;9.222;2023-03-01T09:22:59;29.37;;;14.53;;
75169;SDS011;63749;49.186;9.222;2023-03-01T09:25:24;26.60;;;13.70;;
75169;SDS011;63749;49.186;9.222;2023-03-01T09:27:51;27.33;;;13.50;;
75169;SDS011;63749;49.186;9.222;2023-03-01T09:30:17;27.77;;;13.60;;
75169;SDS011;63749;49.186;9.222;2023-03-01T09:32:42;26.55;;;13.32;;
75169;SDS011;63749;49.186;9.222;2023-03-01T09:35:10;26.73;;;12.82;;
75169;SDS011;63749;49.186;9.222;2023-03-01T09:37:36;27.60;;;13.98;;
75169;SDS011;63749;49.186;9.222;2023-03-01T09:40:03;29.33;;;14.05;;
75169;SDS011;63749;49.186;9.222;2023-03-01T09:42:31;23.33;;;9.33;;
75169;SDS011;63749;49.186;9.222;2023-03-01T09:45:05;29.85;;;13.50;;
75169;SDS011;63749;49.186;9.222;2023-03-01T09:47:36;24.60;;;11.38;;
75169;SDS011;63749;49.186;9.222;2023-03-01T09:52:46;22.55;;;9.60;;
75169;SDS011;63749;49.186;9.222;2023-03-01T09:55:17;28.02;;;12.95;;
75169;SDS011;63749;49.186;9.222;2023-03-01T09:57:53;30.95;;;9.55;;
75169;SDS011;63749;49.186;9.222;2023-03-01T10:00:46;30.00;;;14.20;;
75169;SDS011;63749;49.186;9.222;2023-03-01T10:11:28;27.40;;;12.48;;
75169;SDS011;63749;49.186;9.222;2023-03-01T10:14:18;23.83;;;10.40;;
75169;SDS011;63749;49.186;9.222;2023-03-01T10:17:02;28.85;;;13.02;;
75169;SDS011;63749;49.186;9.222;2023-03-01T10:19:31;22.00;;;9.77;;
75169;SDS011;63749;49.186;9.222;2023-03-01T10:22:15;20.48;;;9.52;;
75169;SDS011;63749;49.186;9.222;2023-03-01T10:24:41;24.63;;;11.25;;
75169;SDS011;63749;49.186;9.222;2023-03-01T10:27:26;27.70;;;13.70;;
75169;SDS011;63749;49.186;9.222;2023-03-01T10:30:05;31.38;;;14.48;;
75169;SDS011;63749;49.186;9.222;2023-03-01T10:32:56;23.85;;;11.25;;
75169;SDS011;63749;49.186;9.222;2023-03-01T10:35:27;30.15;;;13.93;;
75169;SDS011;63749;49.186;9.222;2023-03-01T10:37:57;27.50;;;14.30;;
75169;SDS011;63749;49.186;9.222;2023-03-01T10:40:23;30.43;;;13.47;;
75169;SDS011;63749;49.186;9.222;2023-03-01T10:42:48;25.23;;;11.57;;
75169;SDS011;63749;49.186;9.222;2023-03-01T10:47:53;30.10;;;13.87;;
75169;SDS011;63749;49.186;9.222;2023-03-01T10:50:35;29.23;;;13.93;;
75169;SDS011;63749;49.186;9.222;2023-03-01T10:53:03;26.00;;;14.23;;
75169;SDS011;63749;49.186;9.222;2023-03-01T11:00:53;28.20;;;13.70;;
75169;SDS011;63749;49.186;9.222;2023-03-01T11:03:24;25.00;;;12.80;;
75169;SDS011;63749;49.186;9.222;2023-03-01T11:05:57;26.08;;;12.30;;
75169;SDS011;63749;49.186;9.222;2023-03-01T11:08:31;22.40;;;10.88;;
75169;SDS011;63749;49.186;9.222;2023-03-01T11:14:01;24.07;;;11.33;;
75169;SDS011;63749;49.186;9.222;2023-03-01T11:16:35;27.63;;;14.18;;
75169;SDS011;63749;49.186;9.222;2023-03-01T11:21:34;28.90;;;13.93;;
75169;SDS011;63749;49.186;9.222;2023-03-01T11:24:03;21.05;;;10.15;;
75169;SDS011;63749;49.186;9.222;2023-03-01T11:26:34;27.53;;;13.67;;
75169;SDS011;63749;49.186;9.222;2023-03-01T11:29:04;26.33;;;11.90;;
75169;SDS011;63749;49.186;9.222;2023-03-01T11:31:41;26.63;;;12.80;;
75169;SDS011;63749;49.186;9.222;2023-03-01T11:34:11;27.20;;;14.27;;
75169;SDS011;63749;49.186;9.222;2023-03-01T11:36:47;22.15;;;11.15;;
75169;SDS011;63749;49.186;9.222;2023-03-01T11:39:31;21.67;;;10.43;;
75169;SDS011;63749;49.186;9.222;2023-03-01T11:42:09;29.13;;;14.30;;
75169;SDS011;63749;49.186;9.222;2023-03-01T11:44:39;27.83;;;13.85;;
75169;SDS011;63749;49.186;9.222;2023-03-01T11:49:58;28.75;;;14.10;;
75169;SDS011;63749;49.186;9.222;2023-03-01T11:58:03;26.83;;;13.95;;
75169;SDS011;63749;49.186;9.222;2023-03-01T12:06:33;25.00;;;13.57;;
75169;SDS011;63749;49.186;9.222;2023-03-01T12:12:08;25.08;;;11.85;;
75169;SDS011;63749;49.186;9.222;2023-03-01T12:20:32;24.10;;;13.63;;
75169;SDS011;63749;49.186;9.222;2023-03-01T12:28:56;26.98;;;14.73;;
75169;SDS011;63749;49.186;9.222;2023-03-01T12:42:53;28.15;;;14.38;;
75169;SDS011;63749;49.186;9.222;2023-03-01T12:45:57;24.85;;;13.55;;
75169;SDS011;63749;49.186;9.222;2023-03-01T12:51:16;25.75;;;14.05;;
75169;SDS011;63749;49.186;9.222;2023-03-01T12:53:49;25.90;;;13.90;;
75169;SDS011;63749;49.186;9.222;2023-03-01T12:56:38;24.13;;;13.50;;
75169;SDS011;63749;49.186;9.222;2023-03-01T13:01:58;24.63;;;13.40;;
75169;SDS011;63749;49.186;9.222;2023-03-01T13:04:45;25.10;;;12.50;;
75169;SDS011;63749;49.186;9.222;2023-03-01T13:07:27;23.00;;;12.20;;
75169;SDS011;63749;49.186;9.222;2023-03-01T13:10:11;26.95;;;13.07;;
75169;SDS011;63749;49.186;9.222;2023-03-01T13:17:52;24.45;;;13.50;;
75169;SDS011;63749;49.186;9.222;2023-03-01T13:20:20;23.05;;;13.05;;
75169;SDS011;63749;49.186;9.222;2023-03-01T13:22:49;24.02;;;12.18;;
75169;SDS011;63749;49.186;9.222;2023-03-01T13:25:31;21.92;;;11.05;;
75169;SDS011;63749;49.186;9.222;2023-03-01T13:31:00;23.67;;;13.52;;
75169;SDS011;63749;49.186;9.222;2023-03-01T13:35:55;24.33;;;13.85;;
75169;SDS011;63749;49.186;9.222;2023-03-01T13:44:24;24.27;;;16.15;;
75169;SDS011;63749;49.186;9.222;2023-03-01T13:52:30;23.67;;;16.53;;
75169;SDS011;63749;49.186;9.222;2023-03-01T13:54:57;23.60;;;15.43;;
75169;SDS011;63749;49.186;9.222;2023-03-01T13:57:25;22.30;;;14.40;;
75169;SDS011;63749;49.186;9.222;2023-03-01T13:59:53;23.15;;;15.60;;
75169;SDS011;63749;49.186;9.222;2023-03-01T14:02:18;22.47;;;15.43;;
75169;SDS011;63749;49.186;9.222;2023-03-01T14:04:44;24.47;;;16.10;;
75169;SDS011;63749;49.186;9.222;2023-03-01T14:07:22;24.40;;;16.58;;
75169;SDS011;63749;49.186;9.222;2023-03-01T14:10:00;24.60;;;16.77;;
75169;SDS011;63749;49.186;9.222;2023-03-01T14:15:19;22.55;;;14.63;;
75169;SDS011;63749;49.186;9.222;2023-03-01T14:17:53;24.50;;;16.40;;
75169;SDS011;63749;49.186;9.222;2023-03-01T14:20:41;23.00;;;16.05;;
75169;SDS011;63749;49.186;9.222;2023-03-01T14:23:14;22.25;;;15.88;;
75169;SDS011;63749;49.186;9.222;2023-03-01T14:25:49;22.00;;;15.80;;
75169;SDS011;63749;49.186;9.222;2023-03-01T14:28:20;22.45;;;15.40;;
75169;SDS011;63749;49.186;9.222;2023-03-01T14:30:50;21.85;;;15.85;;
75169;SDS011;63749;49.186;9.222;2023-03-01T14:33:34;23.15;;;16.02;;
75169;SDS011;63749;49.186;9.222;2023-03-01T14:36:05;23.38;;;16.27;;
75169;SDS011;63749;49.186;9.222;2023-03-01T14:39:15;23.83;;;16.43;;
75169;SDS011;63749;49.186;9.222;2023-03-01T14:41:31;24.02;;;16.48;;
75169;SDS011;63749;49.186;9.222;2023-03-01T14:44:00;22.52;;;16.15;;
75169;SDS011;63749;49.186;9.222;2023-03-01T14:49:11;24.88;;;16.42;;
75169;SDS011;63749;49.186;9.222;2023-03-01T14:51:41;22.50;;;15.00;;
75169;SDS011;63749;49.186;9.222;2023-03-01T14:54:18;24.10;;;15.70;;
75169;SDS011;63749;49.186;9.222;2023-03-01T14:56:45;23.77;;;16.33;;
75169;SDS011;63749;49.186;9.222;2023-03-01T14:59:11;22.58;;;15.20;;
75169;SDS011;63749;49.186;9.222;2023-03-01T15:01:38;21.25;;;14.73;;
75169;SDS011;63749;49.186;9.222;2023-03-01T15:04:05;22.53;;;15.87;;
75169;SDS011;63749;49.186;9.222;2023-03-01T15:06:31;22.98;;;16.42;;
75169;SDS011;63749;49.186;9.222;2023-03-01T15:08:57;22.58;;;15.95;;
75169;SDS011;63749;49.186;9.222;2023-03-01T15:11:24;23.63;;;16.70;;
75169;SDS011;63749;49.186;9.222;2023-03-01T15:13:55;22.15;;;16.25;;
75169;SDS011;63749;49.186;9.222;2023-03-01T15:16:25;22.15;;;16.40;;
75169;SDS011;63749;49.186;9.222;2023-03-01T15:18:53;22.88;;;16.35;;
75169;SDS011;63749;49.186;9.222;2023-03-01T15:21:24;23.27;;;17.23;;
75169;SDS011;63749;49.186;9.222;2023-03-01T15:23:56;23.10;;;15.88;;
75169;SDS011;63749;49.186;9.222;2023-03-01T15:26:32;22.80;;;14.98;;
75169;SDS011;63749;49.186;9.222;2023-03-01T15:29:04;21.85;;;15.75;;
75169;SDS011;63749;49.186;9.222;2023-03-01T15:31:31;19.63;;;12.53;;
75169;SDS011;63749;49.186;9.222;2023-03-01T15:36:49;23.90;;;15.68;;
75169;SDS011;63749;49.186;9.222;2023-03-01T15:39:25;24.93;;;16.17;;
75169;SDS011;63749;49.186;9.222;2023-03-01T15:42:07;27.08;;;15.48;;
75169;SDS011;63749;49.186;9.222;2023-03-01T15:44:34;21.75;;;14.15;;
75169;SDS011;63749;49.186;9.222;2023-03-01T15:47:01;24.65;;;15.77;;
75169;SDS011;63749;49.186;9.222;2023-03-01T15:49:40;25.05;;;15.50;;
75169;SDS011;63749;49.186;9.222;2023-03-01T15:52:12;23.13;;;15.40;;
75169;SDS011;63749;49.186;9.222;2023-03-01T15:54:54;22.40;;;15.38;;
75169;SDS011;63749;49.186;9.222;2023-03-01T15:57:20;25.33;;;15.23;;
75169;SDS011;63749;49.186;9.222;2023-03-01T15:59:45;22.87;;;14.57;;
75169;SDS011;63749;49.186;9.222;2023-03-01T16:02:11;23.33;;;14.57;;
75169;SDS011;63749;49.186;9.222;2023-03-01T16:04:37;24.50;;;14.80;;
75169;SDS011;63749;49.186;9.222;2023-03-01T16:07:03;25.48;;;14.50;;
75169;SDS011;63749;49.186;9.222;2023-03-01T16:09:29;19.77;;;11.33;;
75169;SDS011;63749;49.186;9.222;2023-03-01T16:11:54;26.40;;;14.40;;
75169;SDS011;63749;49.186;9.222;2023-03-01T16:14:20;25.23;;;14.07;;
75169;SDS011;63749;49.186;9.222;2023-03-01T16:16:45;25.47;;;13.90;;
75169;SDS011;63749;49.186;9.222;2023-03-01T16:19:12;24.17;;;13.35;;
75169;SDS011;63749;49.186;9.222;2023-03-01T16:21:38;23.13;;;12.47;;
75169;SDS011;63749;49.186;9.222;2023-03-01T16:24:04;25.20;;;13.70;;
75169;SDS011;63749;49.186;9.222;2023-03-01T16:26:29;27.27;;;13.80;;
75169;SDS011;63749;49.186;9.222;2023-03-01T16:28:55;22.77;;;12.40;;
75169;SDS011;63749;49.186;9.222;2023-03-01T16:31:21;25.13;;;12.38;;